sensor_id;sensor_type;location;lat;lon;timestamp;pressure;altitude;pressure_sealevel;temperature;humidity
58385;BME280;44185;47.844;8.966;2023-02-03T00:00:27;97520.78;;;2.77;100.00
58385;BME280;44185;47.844;8.966;2023-02-03T00:02:52;97507.72;;;2.77;100.00
58385;BME280;44185;47.844;8.966;2023-02-03T00:05:18;97501.78;;;2.72;100.00
58385;BME280;44185;47.844;8.966;2023-02-03T00:07:43;97497.34;;;2.74;100.00
58385;BME280;44185;47.844;8.966;2023-02-03T00:10:10;97497.44;;;2.72;100.00
58385;BME280;44185;47.844;8.966;2023-02-03T00:12:36;97493.16;;;2.70;100.00
58385;BME280;44185;47.844;8.966;2023-02-03T00:15:01;97499.25;;;2.70;100.00
58385;BME280;44185;47.844;8.966;2023-02-03T00:17:27;97501.78;;;2.72;100.00
58385;BME280;44185;47.844;8.966;2023-02-03T00:19:52;97512.25;;;2.72;100.00
58385;BME280;44185;47.844;8.966;2023-02-03T00:22:17;97527.06;;;2.71;100.00
58385;BME280;44185;47.844;8.966;2023-02-03T00:24:43;97534.88;;;2.73;100.00
58385;BME280;44185;47.844;8.966;2023-02-03T00:27:10;97527.94;;;2.72;100.00
58385;BME280;44185;47.844;8.966;2023-02-03T00:29:35;97530.59;;;2.70;100.00
58385;BME280;44185;47.844;8.966;2023-02-03T00:32:01;97530.53;;;2.72;100.00
58385;BME280;44185;47.844;8.966;2023-02-03T00:34:27;97534.19;;;2.67;100.00
58385;BME280;44185;47.844;8.966;2023-02-03T00:36:53;97537.69;;;2.66;100.00
58385;BME280;44185;47.844;8.966;2023-02-03T00:39:18;97538.56;;;2.65;100.00
58385;BME280;44185;47.844;8.966;2023-02-03T00:41:43;97540.13;;;2.73;100.00
58385;BME280;44185;47.844;8.966;2023-02-03T00:44:10;97543.72;;;2.69;100.00
58385;BME280;44185;47.844;8.966;2023-02-03T00:46:36;97532.38;;;2.70;100.00
58385;BME280;44185;47.844;8.966;2023-02-03T00:49:02;97536.81;;;2.66;100.00
58385;BME280;44185;47.844;8.966;2023-02-03T00:51:27;97531.75;;;2.61;100.00
58385;BME280;44185;47.844;8.966;2023-02-03T00:53:53;97542.16;;;2.63;100.00
58385;BME280;44185;47.844;8.966;2023-02-03T00:56:18;97549.03;;;2.65;100.00
58385;BME280;44185;47.844;8.966;2023-02-03T00:58:44;97544.66;;;2.66;100.00
58385;BME280;44185;47.844;8.966;2023-02-03T01:01:11;97550.66;;;2.70;100.00
58385;BME280;44185;47.844;8.966;2023-02-03T01:03:36;97545.50;;;2.68;100.00
58385;BME280;44185;47.844;8.966;2023-02-03T01:06:13;97548.09;;;2.68;100.00
58385;BME280;44185;47.844;8.966;2023-02-03T01:08:39;97534.13;;;2.69;100.00
58385;BME280;44185;47.844;8.966;2023-02-03T01:11:06;97536.81;;;2.66;100.00
58385;BME280;44185;47.844;8.966;2023-02-03T01:13:32;97542.97;;;2.65;100.00
58385;BME280;44185;47.844;8.966;2023-02-03T01:15:57;97543.69;;;2.70;100.00
58385;BME280;44185;47.844;8.966;2023-02-03T01:18:24;97545.34;;;2.73;100.00
58385;BME280;44185;47.844;8.966;2023-02-03T01:20:50;97553.28;;;2.70;100.00
58385;BME280;44185;47.844;8.966;2023-02-03T01:23:15;97543.69;;;2.70;100.00
58385;BME280;44185;47.844;8.966;2023-02-03T01:25:40;97543.63;;;2.72;100.00
58385;BME280;44185;47.844;8.966;2023-02-03T01:28:06;97551.44;;;2.73;100.00
58385;BME280;44185;47.844;8.966;2023-02-03T01:30:32;97537.66;;;2.68;100.00
58385;BME280;44185;47.844;8.966;2023-02-03T01:32:57;97532.47;;;2.66;100.00
58385;BME280;44185;47.844;8.966;2023-02-03T01:35:24;97551.63;;;2.67;100.00
58385;BME280;44185;47.844;8.966;2023-02-03T01:37:50;97544.66;;;2.66;100.00
58385;BME280;44185;47.844;8.966;2023-02-03T01:40:15;97545.53;;;2.66;100.00
58385;BME280;44185;47.844;8.966;2023-02-03T01:42:41;97545.53;;;2.66;100.00
58385;BME280;44185;47.844;8.966;2023-02-03T01:45:07;97553.44;;;2.65;100.00
58385;BME280;44185;47.844;8.966;2023-02-03T01:47:37;97552.38;;;2.71;100.00
58385;BME280;44185;47.844;8.966;2023-02-03T01:50:11;97558.44;;;2.71;100.00
58385;BME280;44185;47.844;8.966;2023-02-03T01:52:40;97553.34;;;2.68;100.00
58385;BME280;44185;47.844;8.966;2023-02-03T01:55:08;97559.31;;;2.72;100.00
58385;BME280;44185;47.844;8.966;2023-02-03T01:57:38;97574.25;;;2.68;100.00
58385;BME280;44185;47.844;8.966;2023-02-03T02:00:06;97580.38;;;2.67;100.00
58385;BME280;44185;47.844;8.966;2023-02-03T02:02:32;97576.91;;;2.66;100.00
58385;BME280;44185;47.844;8.966;2023-02-03T02:05:02;97577.75;;;2.67;100.00
58385;BME280;44185;47.844;8.966;2023-02-03T02:07:29;97579.47;;;2.68;100.00
58385;BME280;44185;47.844;8.966;2023-02-03T02:09:57;97561.22;;;2.66;100.00
58385;BME280;44185;47.844;8.966;2023-02-03T02:12:22;97555.94;;;2.68;100.00
58385;BME280;44185;47.844;8.966;2023-02-03T02:14:48;97539.53;;;2.63;100.00
58385;BME280;44185;47.844;8.966;2023-02-03T02:17:27;97543.06;;;2.62;100.00
58385;BME280;44185;47.844;8.966;2023-02-03T02:23:16;97520.41;;;2.62;100.00
58385;BME280;44185;47.844;8.966;2023-02-03T02:26:08;97507.34;;;2.62;100.00
58385;BME280;44185;47.844;8.966;2023-02-03T02:28:57;97520.53;;;2.58;100.00
58385;BME280;44185;47.844;8.966;2023-02-03T02:31:46;97517.09;;;2.57;100.00
58385;BME280;44185;47.844;8.966;2023-02-03T02:34:22;97523.16;;;2.58;100.00
58385;BME280;44185;47.844;8.966;2023-02-03T02:36:59;97516.22;;;2.57;100.00
58385;BME280;44185;47.844;8.966;2023-02-03T02:39:32;97525.75;;;2.58;100.00
58385;BME280;44185;47.844;8.966;2023-02-03T02:42:06;97531.00;;;2.58;100.00
58385;BME280;44185;47.844;8.966;2023-02-03T02:44:34;97530.16;;;2.57;100.00
58385;BME280;44185;47.844;8.966;2023-02-03T02:47:09;97526.63;;;2.58;100.00
58385;BME280;44185;47.844;8.966;2023-02-03T02:49:40;97542.38;;;2.57;100.00
58385;BME280;44185;47.844;8.966;2023-02-03T02:52:07;97543.25;;;2.55;100.00
58385;BME280;44185;47.844;8.966;2023-02-03T02:54:36;97544.97;;;2.57;100.00
58385;BME280;44185;47.844;8.966;2023-02-03T02:57:04;97558.09;;;2.55;100.00
58385;BME280;44185;47.844;8.966;2023-02-03T02:59:30;97552.84;;;2.55;100.00
58385;BME280;44185;47.844;8.966;2023-02-03T03:01:56;97548.56;;;2.54;100.00
58385;BME280;44185;47.844;8.966;2023-02-03T03:04:25;97543.31;;;2.54;100.00
58385;BME280;44185;47.844;8.966;2023-02-03T03:06:54;97529.47;;;2.52;100.00
58385;BME280;44185;47.844;8.966;2023-02-03T03:09:25;97531.91;;;2.57;100.00
58385;BME280;44185;47.844;8.966;2023-02-03T03:11:57;97535.47;;;2.54;100.00
58385;BME280;44185;47.844;8.966;2023-02-03T03:14:25;97516.25;;;2.55;100.00
58385;BME280;44185;47.844;8.966;2023-02-03T03:16:55;97494.72;;;2.48;100.00
58385;BME280;44185;47.844;8.966;2023-02-03T03:19:28;97485.06;;;2.50;100.00
58385;BME280;44185;47.844;8.966;2023-02-03T03:21:59;97483.41;;;2.48;100.00
58385;BME280;44185;47.844;8.966;2023-02-03T03:24:27;97488.63;;;2.48;100.00
58385;BME280;44185;47.844;8.966;2023-02-03T03:26:56;97506.91;;;2.49;100.00
58385;BME280;44185;47.844;8.966;2023-02-03T03:29:29;97520.69;;;2.53;100.00
58385;BME280;44185;47.844;8.966;2023-02-03T03:31:56;97512.94;;;2.50;100.00
58385;BME280;44185;47.844;8.966;2023-02-03T03:34:22;97506.91;;;2.49;100.00
58385;BME280;44185;47.844;8.966;2023-02-03T03:36:55;97499.09;;;2.48;100.00
58385;BME280;44185;47.844;8.966;2023-02-03T03:39:29;97499.09;;;2.48;100.00
58385;BME280;44185;47.844;8.966;2023-02-03T03:42:01;97491.25;;;2.48;100.00
58385;BME280;44185;47.844;8.966;2023-02-03T03:44:32;97483.31;;;2.51;100.00
58385;BME280;44185;47.844;8.966;2023-02-03T03:47:03;97489.50;;;2.48;100.00
58385;BME280;44185;47.844;8.966;2023-02-03T03:49:32;97481.72;;;2.47;100.00
58385;BME280;44185;47.844;8.966;2023-02-03T03:52:02;97480.78;;;2.48;100.00
58385;BME280;44185;47.844;8.966;2023-02-03T03:54:30;97486.94;;;2.47;100.00
58385;BME280;44185;47.844;8.966;2023-02-03T03:56:59;97467.69;;;2.49;100.00
58385;BME280;44185;47.844;8.966;2023-02-03T03:59:29;97467.69;;;2.49;100.00
58385;BME280;44185;47.844;8.966;2023-02-03T04:01:56;97473.91;;;2.45;100.00
58385;BME280;44185;47.844;8.966;2023-02-03T04:04:24;97483.47;;;2.46;100.00
58385;BME280;44185;47.844;8.966;2023-02-03T04:06:52;97495.63;;;2.47;100.00
58385;BME280;44185;47.844;8.966;2023-02-03T04:09:19;97508.66;;;2.49;100.00
58385;BME280;44185;47.844;8.966;2023-02-03T04:11:44;97501.59;;;2.51;100.00
58385;BME280;44185;47.844;8.966;2023-02-03T04:14:10;97499.78;;;2.53;100.00
58385;BME280;44185;47.844;8.966;2023-02-03T04:16:35;97492.72;;;2.57;100.00
58385;BME280;44185;47.844;8.966;2023-02-03T04:19:01;97487.50;;;2.57;100.00
58385;BME280;44185;47.844;8.966;2023-02-03T04:21:26;97494.41;;;2.58;100.00
58385;BME280;44185;47.844;8.966;2023-02-03T04:23:52;97482.19;;;2.58;100.00
58385;BME280;44185;47.844;8.966;2023-02-03T04:26:18;97482.25;;;2.57;100.00
58385;BME280;44185;47.844;8.966;2023-02-03T04:28:44;97493.56;;;2.57;100.00
58385;BME280;44185;47.844;8.966;2023-02-03T04:31:09;97524.81;;;2.60;100.00
58385;BME280;44185;47.844;8.966;2023-02-03T04:33:35;97517.03;;;2.59;100.00
58385;BME280;44185;47.844;8.966;2023-02-03T04:36:00;97526.53;;;2.61;100.00
58385;BME280;44185;47.844;8.966;2023-02-03T04:38:25;97529.09;;;2.63;100.00
58385;BME280;44185;47.844;8.966;2023-02-03T04:40:51;97536.88;;;2.64;100.00
58385;BME280;44185;47.844;8.966;2023-02-03T04:43:18;97555.13;;;2.66;100.00
58385;BME280;44185;47.844;8.966;2023-02-03T04:45:43;97553.34;;;2.68;100.00
58385;BME280;44185;47.844;8.966;2023-02-03T04:48:08;97527.19;;;2.68;100.00
58385;BME280;44185;47.844;8.966;2023-02-03T04:50:34;97528.09;;;2.67;100.00
58385;BME280;44185;47.844;8.966;2023-02-03T04:52:59;97530.63;;;2.69;100.00
58385;BME280;44185;47.844;8.966;2023-02-03T04:55:25;97532.31;;;2.71;100.00
58385;BME280;44185;47.844;8.966;2023-02-03T04:57:54;97542.72;;;2.73;100.00
58385;BME280;44185;47.844;8.966;2023-02-03T05:00:21;97547.09;;;2.72;100.00
58385;BME280;44185;47.844;8.966;2023-02-03T05:02:46;97538.47;;;2.69;100.00
58385;BME280;44185;47.844;8.966;2023-02-03T05:05:12;97537.59;;;2.70;100.00
58385;BME280;44185;47.844;8.966;2023-02-03T05:07:38;97534.09;;;2.71;100.00
58385;BME280;44185;47.844;8.966;2023-02-03T05:10:04;97538.38;;;2.72;100.00
58385;BME280;44185;47.844;8.966;2023-02-03T05:12:29;97537.53;;;2.71;100.00
58385;BME280;44185;47.844;8.966;2023-02-03T05:14:55;97535.78;;;2.72;100.00
58385;BME280;44185;47.844;8.966;2023-02-03T05:17:22;97541.81;;;2.74;100.00
58385;BME280;44185;47.844;8.966;2023-02-03T05:19:47;97559.31;;;2.72;100.00
58385;BME280;44185;47.844;8.966;2023-02-03T05:22:13;97561.75;;;2.76;100.00
58385;BME280;44185;47.844;8.966;2023-02-03T05:24:38;97554.78;;;2.77;100.00
58385;BME280;44185;47.844;8.966;2023-02-03T05:27:03;97559.00;;;2.81;100.00
58385;BME280;44185;47.844;8.966;2023-02-03T05:29:29;97564.34;;;2.78;100.00
58385;BME280;44185;47.844;8.966;2023-02-03T05:31:54;97543.34;;;2.80;100.00
58385;BME280;44185;47.844;8.966;2023-02-03T05:34:21;97539.00;;;2.80;100.00
58385;BME280;44185;47.844;8.966;2023-02-03T05:36:46;97527.75;;;2.78;100.00
58385;BME280;44185;47.844;8.966;2023-02-03T05:39:12;97515.63;;;2.75;100.00
58385;BME280;44185;47.844;8.966;2023-02-03T05:41:38;97507.72;;;2.77;100.00
58385;BME280;44185;47.844;8.966;2023-02-03T05:44:03;97529.44;;;2.79;100.00
58385;BME280;44185;47.844;8.966;2023-02-03T05:46:29;97515.56;;;2.77;100.00
58385;BME280;44185;47.844;8.966;2023-02-03T05:48:54;97510.16;;;2.82;100.00
58385;BME280;44185;47.844;8.966;2023-02-03T05:51:21;97492.78;;;2.81;100.00
58385;BME280;44185;47.844;8.966;2023-02-03T05:53:46;97502.38;;;2.80;100.00
58385;BME280;44185;47.844;8.966;2023-02-03T05:56:12;97513.75;;;2.79;100.00
58385;BME280;44185;47.844;8.966;2023-02-03T05:58:38;97510.16;;;2.82;100.00
58385;BME280;44185;47.844;8.966;2023-02-03T06:01:03;97509.38;;;2.80;100.00
58385;BME280;44185;47.844;8.966;2023-02-03T06:03:29;97525.13;;;2.78;100.00
58385;BME280;44185;47.844;8.966;2023-02-03T06:05:54;97534.53;;;2.84;100.00
58385;BME280;44185;47.844;8.966;2023-02-03T06:08:21;97535.41;;;2.83;100.00
58385;BME280;44185;47.844;8.966;2023-02-03T06:10:46;97534.63;;;2.81;100.00
58385;BME280;44185;47.844;8.966;2023-02-03T06:13:14;97541.59;;;2.80;100.00
58385;BME280;44185;47.844;8.966;2023-02-03T06:15:40;97544.28;;;2.78;100.00
58385;BME280;44185;47.844;8.966;2023-02-03T06:18:06;97540.13;;;2.73;100.00
58385;BME280;44185;47.844;8.966;2023-02-03T06:20:32;97543.63;;;2.72;100.00
58385;BME280;44185;47.844;8.966;2023-02-03T06:22:57;97534.28;;;2.64;100.00
58385;BME280;44185;47.844;8.966;2023-02-03T06:25:25;97544.88;;;2.60;100.00
58385;BME280;44185;47.844;8.966;2023-02-03T06:27:50;97560.69;;;2.55;100.00
58385;BME280;44185;47.844;8.966;2023-02-03T06:30:16;97584.22;;;2.55;100.00
58385;BME280;44185;47.844;8.966;2023-02-03T06:32:42;97595.53;;;2.55;100.00
58385;BME280;44185;47.844;8.966;2023-02-03T06:35:08;97598.19;;;2.54;100.00
58385;BME280;44185;47.844;8.966;2023-02-03T06:37:33;97575.56;;;2.53;100.00
58385;BME280;44185;47.844;8.966;2023-02-03T06:39:59;97579.84;;;2.55;100.00
58385;BME280;44185;47.844;8.966;2023-02-03T06:42:26;97586.81;;;2.55;100.00
58385;BME280;44185;47.844;8.966;2023-02-03T06:44:51;97592.91;;;2.55;100.00
58385;BME280;44185;47.844;8.966;2023-02-03T06:47:19;97570.34;;;2.53;100.00
58385;BME280;44185;47.844;8.966;2023-02-03T06:49:45;97561.16;;;2.41;100.00
58385;BME280;44185;47.844;8.966;2023-02-03T06:52:10;97578.63;;;2.39;100.00
58385;BME280;44185;47.844;8.966;2023-02-03T06:54:36;97583.03;;;2.37;100.00
58385;BME280;44185;47.844;8.966;2023-02-03T06:57:01;97576.91;;;2.38;100.00
58385;BME280;44185;47.844;8.966;2023-02-03T06:59:29;97575.97;;;2.40;100.00
58385;BME280;44185;47.844;8.966;2023-02-03T07:01:54;97562.03;;;2.40;100.00
58385;BME280;44185;47.844;8.966;2023-02-03T07:04:20;97565.47;;;2.42;100.00
58385;BME280;44185;47.844;8.966;2023-02-03T07:06:45;97561.09;;;2.42;100.00
58385;BME280;44185;47.844;8.966;2023-02-03T07:09:10;97551.66;;;2.38;100.00
58385;BME280;44185;47.844;8.966;2023-02-03T07:11:36;97547.28;;;2.39;100.00
58385;BME280;44185;47.844;8.966;2023-02-03T07:14:01;97541.19;;;2.38;100.00
58385;BME280;44185;47.844;8.966;2023-02-03T07:16:29;97547.22;;;2.40;100.00
58385;BME280;44185;47.844;8.966;2023-02-03T07:18:54;97543.56;;;2.46;100.00
58385;BME280;44185;47.844;8.966;2023-02-03T07:21:20;97542.72;;;2.46;100.00
58385;BME280;44185;47.844;8.966;2023-02-03T07:23:46;97545.22;;;2.49;100.00
58385;BME280;44185;47.844;8.966;2023-02-03T07:26:11;97532.09;;;2.50;100.00
58385;BME280;44185;47.844;8.966;2023-02-03T07:28:37;97519.03;;;2.50;100.00
58385;BME280;44185;47.844;8.966;2023-02-03T07:31:03;97530.34;;;2.51;100.00
58385;BME280;44185;47.844;8.966;2023-02-03T07:33:30;97531.94;;;2.55;100.00
58385;BME280;44185;47.844;8.966;2023-02-03T07:35:57;97523.31;;;2.53;100.00
58385;BME280;44185;47.844;8.966;2023-02-03T07:38:24;97540.72;;;2.54;100.00
58385;BME280;44185;47.844;8.966;2023-02-03T07:40:49;97555.59;;;2.52;100.00
58385;BME280;44185;47.844;8.966;2023-02-03T07:43:15;97562.34;;;2.58;100.00
58385;BME280;44185;47.844;8.966;2023-02-03T07:45:40;97553.69;;;2.57;100.00
58385;BME280;44185;47.844;8.966;2023-02-03T07:48:06;97539.91;;;2.52;100.00
58385;BME280;44185;47.844;8.966;2023-02-03T07:50:33;97547.75;;;2.52;100.00
58385;BME280;44185;47.844;8.966;2023-02-03T07:52:58;97545.13;;;2.52;100.00
58385;BME280;44185;47.844;8.966;2023-02-03T07:55:24;97554.47;;;2.59;100.00
58385;BME280;44185;47.844;8.966;2023-02-03T07:57:50;97556.06;;;2.63;100.00
58385;BME280;44185;47.844;8.966;2023-02-03T08:00:18;97561.88;;;2.73;100.00
58385;BME280;44185;47.844;8.966;2023-02-03T08:02:43;97558.19;;;2.79;100.00
58385;BME280;44185;47.844;8.966;2023-02-03T08:05:10;97542.25;;;2.87;100.00
58385;BME280;44185;47.844;8.966;2023-02-03T08:07:37;97553.47;;;2.91;100.00
58385;BME280;44185;47.844;8.966;2023-02-03T08:10:03;97556.09;;;2.91;100.00
58385;BME280;44185;47.844;8.966;2023-02-03T08:12:28;97567.25;;;2.96;100.00
58385;BME280;44185;47.844;8.966;2023-02-03T08:14:54;97559.22;;;3.00;100.00
58385;BME280;44185;47.844;8.966;2023-02-03T08:17:19;97554.75;;;3.04;100.00
58385;BME280;44185;47.844;8.966;2023-02-03T08:19:45;97558.25;;;3.05;100.00
58385;BME280;44185;47.844;8.966;2023-02-03T08:22:10;97555.53;;;3.08;100.00
58385;BME280;44185;47.844;8.966;2023-02-03T08:24:37;97553.75;;;3.08;100.00
58385;BME280;44185;47.844;8.966;2023-02-03T08:27:02;97551.03;;;3.11;100.00
58385;BME280;44185;47.844;8.966;2023-02-03T08:29:28;97548.59;;;3.05;100.00
58385;BME280;44185;47.844;8.966;2023-02-03T08:31:53;97556.44;;;3.05;100.00
58385;BME280;44185;47.844;8.966;2023-02-03T08:34:19;97567.88;;;3.03;100.00
58385;BME280;44185;47.844;8.966;2023-02-03T08:36:44;97564.19;;;3.08;100.00
58385;BME280;44185;47.844;8.966;2023-02-03T08:39:10;97567.66;;;3.10;100.00
58385;BME280;44185;47.844;8.966;2023-02-03T08:41:37;97566.00;;;3.08;100.00
58385;BME280;44185;47.844;8.966;2023-02-03T08:44:02;97559.03;;;3.07;100.00
58385;BME280;44185;47.844;8.966;2023-02-03T08:46:27;97550.16;;;3.11;100.00
58385;BME280;44185;47.844;8.966;2023-02-03T08:48:53;97551.56;;;3.21;100.00
58385;BME280;44185;47.844;8.966;2023-02-03T08:51:19;97546.00;;;3.31;100.00
58385;BME280;44185;47.844;8.966;2023-02-03T08:53:44;97548.28;;;3.40;100.00
58385;BME280;44185;47.844;8.966;2023-02-03T08:56:11;97561.00;;;3.51;100.00
58385;BME280;44185;47.844;8.966;2023-02-03T08:58:38;97565.94;;;3.59;100.00
58385;BME280;44185;47.844;8.966;2023-02-03T09:01:08;97566.19;;;3.77;100.00
58385;BME280;44185;47.844;8.966;2023-02-03T09:03:34;97570.91;;;3.91;100.00
58385;BME280;44185;47.844;8.966;2023-02-03T09:05:59;97582.25;;;3.92;100.00
58385;BME280;44185;47.844;8.966;2023-02-03T09:08:24;97570.72;;;3.96;100.00
58385;BME280;44185;47.844;8.966;2023-02-03T09:10:50;97566.06;;;4.04;100.00
58385;BME280;44185;47.844;8.966;2023-02-03T09:13:15;97566.84;;;4.06;100.00
58385;BME280;44185;47.844;8.966;2023-02-03T09:15:42;97569.53;;;4.05;100.00
58385;BME280;44185;47.844;8.966;2023-02-03T09:18:07;97577.63;;;3.98;100.00
58385;BME280;44185;47.844;8.966;2023-02-03T09:20:33;97578.41;;;4.25;100.00
58385;BME280;44185;47.844;8.966;2023-02-03T09:22:58;97584.38;;;4.28;100.00
58385;BME280;44185;47.844;8.966;2023-02-03T09:25:24;97602.69;;;4.30;99.63
58385;BME280;44185;47.844;8.966;2023-02-03T09:27:49;97612.19;;;4.32;100.00
58385;BME280;44185;47.844;8.966;2023-02-03T09:30:15;97593.28;;;4.24;99.53
58385;BME280;44185;47.844;8.966;2023-02-03T09:32:42;97586.94;;;4.30;100.00
58385;BME280;44185;47.844;8.966;2023-02-03T09:35:08;97580.97;;;4.26;99.85
58385;BME280;44185;47.844;8.966;2023-02-03T09:37:33;97589.00;;;4.21;99.16
58385;BME280;44185;47.844;8.966;2023-02-03T09:39:58;97587.38;;;4.19;100.00
58385;BME280;44185;47.844;8.966;2023-02-03T09:42:48;97590.03;;;4.17;99.92
58385;BME280;44185;47.844;8.966;2023-02-03T09:45:23;97614.81;;;4.32;100.00
58385;BME280;44185;47.844;8.966;2023-02-03T09:47:52;97616.03;;;4.46;99.61
58385;BME280;44185;47.844;8.966;2023-02-03T09:50:19;97595.88;;;4.48;99.30
58385;BME280;44185;47.844;8.966;2023-02-03T09:52:46;97592.72;;;4.38;98.96
58385;BME280;44185;47.844;8.966;2023-02-03T09:55:23;97593.53;;;4.63;99.67
58385;BME280;44185;47.844;8.966;2023-02-03T09:57:53;97585.75;;;4.61;98.71
58385;BME280;44185;47.844;8.966;2023-02-03T10:00:21;97600.91;;;4.75;99.18
58385;BME280;44185;47.844;8.966;2023-02-03T10:02:55;97609.19;;;4.87;98.67
58385;BME280;44185;47.844;8.966;2023-02-03T10:05:27;97592.69;;;4.85;97.80
58385;BME280;44185;47.844;8.966;2023-02-03T10:08:00;97591.44;;;4.94;97.66
58385;BME280;44185;47.844;8.966;2023-02-03T10:10:35;97585.00;;;4.80;97.48
58385;BME280;44185;47.844;8.966;2023-02-03T10:13:21;97576.94;;;4.85;98.50
58385;BME280;44185;47.844;8.966;2023-02-03T10:16:14;97568.03;;;5.10;96.99
58385;BME280;44185;47.844;8.966;2023-02-03T10:18:47;97565.41;;;5.31;95.98
58385;BME280;44185;47.844;8.966;2023-02-03T10:21:18;97549.78;;;5.49;95.31
58385;BME280;44185;47.844;8.966;2023-02-03T10:23:47;97557.63;;;5.70;93.98
58385;BME280;44185;47.844;8.966;2023-02-03T10:26:15;97568.69;;;5.57;93.12
58385;BME280;44185;47.844;8.966;2023-02-03T10:28:49;97538.50;;;5.66;91.68
58385;BME280;44185;47.844;8.966;2023-02-03T10:31:17;97537.81;;;5.82;92.78
58385;BME280;44185;47.844;8.966;2023-02-03T10:33:45;97528.38;;;5.77;91.00
58385;BME280;44185;47.844;8.966;2023-02-03T10:36:17;97533.22;;;6.06;90.77
58385;BME280;44185;47.844;8.966;2023-02-03T10:38:50;97530.41;;;6.11;90.70
58385;BME280;44185;47.844;8.966;2023-02-03T10:41:18;97537.41;;;6.30;91.23
58385;BME280;44185;47.844;8.966;2023-02-03T10:43:45;97531.84;;;6.18;89.03
58385;BME280;44185;47.844;8.966;2023-02-03T10:46:10;97532.22;;;5.89;90.14
58385;BME280;44185;47.844;8.966;2023-02-03T10:48:36;97521.41;;;5.76;90.57
58385;BME280;44185;47.844;8.966;2023-02-03T10:51:03;97518.25;;;5.89;89.94
58385;BME280;44185;47.844;8.966;2023-02-03T10:53:32;97508.91;;;5.82;89.29
58385;BME280;44185;47.844;8.966;2023-02-03T10:56:02;97511.22;;;6.28;88.25
58385;BME280;44185;47.844;8.966;2023-02-03T10:58:31;97501.13;;;6.19;88.05
58385;BME280;44185;47.844;8.966;2023-02-03T11:01:05;97499.00;;;6.45;86.71
58385;BME280;44185;47.844;8.966;2023-02-03T11:03:31;97500.34;;;6.54;85.34
58385;BME280;44185;47.844;8.966;2023-02-03T11:06:06;97506.31;;;6.58;87.17
58385;BME280;44185;47.844;8.966;2023-02-03T11:08:33;97493.84;;;6.24;85.04
58385;BME280;44185;47.844;8.966;2023-02-03T11:11:03;97506.47;;;6.17;86.46
58385;BME280;44185;47.844;8.966;2023-02-03T11:13:29;97505.56;;;6.36;87.48
58385;BME280;44185;47.844;8.966;2023-02-03T11:15:56;97486.72;;;6.08;87.73
58385;BME280;44185;47.844;8.966;2023-02-03T11:18:34;97503.19;;;6.12;87.89
58385;BME280;44185;47.844;8.966;2023-02-03T11:21:05;97496.81;;;6.18;87.15
58385;BME280;44185;47.844;8.966;2023-02-03T11:23:31;97502.91;;;5.99;86.42
58385;BME280;44185;47.844;8.966;2023-02-03T11:25:58;97513.03;;;6.07;86.90
58385;BME280;44185;47.844;8.966;2023-02-03T11:28:25;97508.88;;;6.22;85.67
58385;BME280;44185;47.844;8.966;2023-02-03T11:30:54;97507.44;;;6.34;86.13
58385;BME280;44185;47.844;8.966;2023-02-03T11:33:23;97525.84;;;6.34;84.97
58385;BME280;44185;47.844;8.966;2023-02-03T11:35:54;97513.28;;;6.02;85.90
58385;BME280;44185;47.844;8.966;2023-02-03T11:38:30;97506.06;;;6.06;87.30
58385;BME280;44185;47.844;8.966;2023-02-03T11:40:58;97495.88;;;5.99;86.70
58385;BME280;44185;47.844;8.966;2023-02-03T11:43:23;97500.03;;;6.04;86.64
58385;BME280;44185;47.844;8.966;2023-02-03T11:45:51;97507.59;;;6.11;85.62
58385;BME280;44185;47.844;8.966;2023-02-03T11:48:25;97480.94;;;6.19;82.83
58385;BME280;44185;47.844;8.966;2023-02-03T11:51:01;97485.47;;;6.35;83.12
58385;BME280;44185;47.844;8.966;2023-02-03T11:53:40;97470.63;;;6.52;80.36
58385;BME280;44185;47.844;8.966;2023-02-03T11:56:17;97473.81;;;6.59;79.50
58385;BME280;44185;47.844;8.966;2023-02-03T11:59:02;97489.44;;;6.44;78.67
58385;BME280;44185;47.844;8.966;2023-02-03T12:05:03;97474.84;;;6.19;83.48
58385;BME280;44185;47.844;8.966;2023-02-03T12:07:39;97450.56;;;5.94;87.18
58385;BME280;44185;47.844;8.966;2023-02-03T12:10:15;97441.88;;;5.92;88.38
58385;BME280;44185;47.844;8.966;2023-02-03T12:12:51;97435.25;;;6.03;88.63
58385;BME280;44185;47.844;8.966;2023-02-03T12:15:33;97439.25;;;5.92;88.22
58385;BME280;44185;47.844;8.966;2023-02-03T12:18:20;97446.38;;;6.09;87.78
58385;BME280;44185;47.844;8.966;2023-02-03T12:21:01;97440.75;;;6.17;87.06
58385;BME280;44185;47.844;8.966;2023-02-03T12:23:39;97438.34;;;6.13;87.26
58385;BME280;44185;47.844;8.966;2023-02-03T12:26:16;97420.09;;;5.90;86.95
58385;BME280;44185;47.844;8.966;2023-02-03T12:28:49;97434.59;;;5.79;87.80
58385;BME280;44185;47.844;8.966;2023-02-03T12:31:24;97425.84;;;5.79;87.88
58385;BME280;44185;47.844;8.966;2023-02-03T12:33:57;97412.06;;;5.93;88.08
58385;BME280;44185;47.844;8.966;2023-02-03T12:36:26;97418.94;;;5.96;87.81
58385;BME280;44185;47.844;8.966;2023-02-03T12:38:56;97425.75;;;6.00;87.76
58385;BME280;44185;47.844;8.966;2023-02-03T12:41:27;97411.22;;;5.93;87.49
58385;BME280;44185;47.844;8.966;2023-02-03T12:43:54;97409.28;;;5.78;87.22
58385;BME280;44185;47.844;8.966;2023-02-03T12:46:25;97404.28;;;5.72;88.00
58385;BME280;44185;47.844;8.966;2023-02-03T12:48:56;97390.94;;;5.77;88.58
58385;BME280;44185;47.844;8.966;2023-02-03T12:51:30;97406.97;;;5.71;88.17
58385;BME280;44185;47.844;8.966;2023-02-03T12:54:01;97408.16;;;5.65;88.42
58385;BME280;44185;47.844;8.966;2023-02-03T12:56:34;97424.91;;;5.62;88.72
58385;BME280;44185;47.844;8.966;2023-02-03T12:59:03;97407.50;;;5.60;88.80
58385;BME280;44185;47.844;8.966;2023-02-03T13:01:34;97419.69;;;5.61;89.14
58385;BME280;44185;47.844;8.966;2023-02-03T13:04:05;97416.38;;;5.57;89.53
58385;BME280;44185;47.844;8.966;2023-02-03T13:06:38;97418.94;;;5.59;90.10
58385;BME280;44185;47.844;8.966;2023-02-03T13:09:18;97411.41;;;5.51;91.40
58385;BME280;44185;47.844;8.966;2023-02-03T13:11:52;97405.94;;;5.55;89.98
58385;BME280;44185;47.844;8.966;2023-02-03T13:14:23;97404.78;;;5.61;91.02